Time;durP1;ratioP1;P1;durP2;ratioP2;P2;SDS_P1;SDS_P2;PMS_P1;PMS_P2;Temp;Humidity;BMP_temperature;BMP_pressure;BME280_temperature;BME280_humidity;BME280_pressure;Samples;Min_cycle;Max_cycle;Signal;HPM_P1;HPM_P2
2022/06/26 00:00:19;;;;;;;27.52;24.23;;;;;;;16.54;100.00;101013.56;5041878;28;20455;-83
2022/06/26 00:02:45;;;;;;;30.23;23.77;;;;;;;16.53;100.00;101018.09;5041563;28;20033;-83
2022/06/26 00:05:11;;;;;;;29.15;23.63;;;;;;;16.44;100.00;101010.72;5044719;28;20061;-84
2022/06/26 00:07:36;;;;;;;28.65;24.80;;;;;;;16.40;100.00;101019.97;5042528;28;20029;-84
2022/06/26 00:10:02;;;;;;;30.20;24.52;;;;;;;16.43;100.00;101017.06;5041334;28;20049;-83
2022/06/26 00:12:28;;;;;;;27.27;23.98;;;;;;;16.43;100.00;101015.22;5044453;28;20036;-84
2022/06/26 00:14:53;;;;;;;27.50;24.20;;;;;;;16.44;100.00;101019.63;5040358;28;20021;-83
2022/06/26 00:17:19;;;;;;;27.73;22.67;;;;;;;16.43;100.00;101025.13;5054315;28;20049;-84
2022/06/26 00:19:44;;;;;;;28.65;23.88;;;;;;;16.42;100.00;101012.63;5037176;28;20123;-84
2022/06/26 00:22:09;;;;;;;26.85;23.35;;;;;;;16.43;100.00;101006.31;5041453;28;20548;-84
2022/06/26 00:24:35;;;;;;;28.35;22.92;;;;;;;16.46;100.00;101007.91;5059241;28;20389;-84
2022/06/26 00:27:02;;;;;;;26.13;21.85;;;;;;;16.44;100.00;101018.78;5041396;28;20091;-84
2022/06/26 00:29:32;;;;;;;26.90;21.20;;;;;;;16.41;100.00;101019.84;5039900;28;20059;-84
2022/06/26 00:31:57;;;;;;;24.73;20.45;;;;;;;16.40;100.00;101033.41;5042985;28;20120;-84
2022/06/26 00:34:23;;;;;;;23.75;20.65;;;;;;;16.38;100.00;101030.81;5042623;28;20112;-84
2022/06/26 00:36:48;;;;;;;26.05;20.90;;;;;;;16.34;100.00;101033.81;5041453;28;20035;-84
2022/06/26 00:39:13;;;;;;;23.75;20.40;;;;;;;16.29;100.00;101031.47;5039702;28;20032;-84
2022/06/26 00:41:39;;;;;;;23.98;21.15;;;;;;;16.24;100.00;101036.31;5039953;28;20131;-84
2022/06/26 00:44:24;;;;;;;24.80;20.95;;;;;;;16.25;100.00;101054.13;5041234;28;20040;-84
2022/06/26 00:46:51;;;;;;;26.45;21.08;;;;;;;16.17;100.00;101048.47;5036546;28;20805;-84
2022/06/26 00:49:17;;;;;;;26.73;22.45;;;;;;;16.13;100.00;101058.56;5039510;28;20111;-82
2022/06/26 00:51:53;;;;;;;27.13;23.00;;;;;;;16.11;100.00;101057.81;5039959;28;20028;-84
2022/06/26 00:54:20;;;;;;;26.88;23.02;;;;;;;16.01;100.00;101051.38;5041188;28;20044;-84
2022/06/26 00:56:46;;;;;;;29.33;23.65;;;;;;;16.03;100.00;101062.00;5040307;28;20040;-84
2022/06/26 00:59:11;;;;;;;30.58;25.88;;;;;;;15.96;100.00;101049.97;5041452;28;20025;-84
2022/06/26 01:01:37;;;;;;;31.15;26.17;;;;;;;15.98;100.00;101054.28;5044262;28;20364;-84
2022/06/26 01:04:03;;;;;;;32.20;26.67;;;;;;;16.01;100.00;101061.25;5043699;28;20072;-84
2022/06/26 01:06:29;;;;;;;34.00;26.27;;;;;;;16.01;100.00;101061.25;5043256;28;20056;-84
2022/06/26 01:08:56;;;;;;;36.40;27.55;;;;;;;16.01;100.00;101053.19;5040629;28;20098;-84
2022/06/26 01:11:26;;;;;;;33.10;25.42;;;;;;;16.01;100.00;101056.75;5045372;28;20043;-84
2022/06/26 01:13:54;;;;;;;30.13;23.77;;;;;;;16.00;100.00;101067.59;5055701;28;20056;-84
2022/06/26 01:16:21;;;;;;;31.05;24.42;;;;;;;15.99;100.00;101060.50;5046751;28;20025;-84
2022/06/26 01:18:49;;;;;;;29.38;21.38;;;;;;;15.96;100.00;101066.94;5042192;28;20036;-84
2022/06/26 01:21:16;;;;;;;24.42;19.40;;;;;;;15.98;100.00;101064.16;5045381;28;20048;-84
2022/06/26 01:23:42;;;;;;;21.77;18.10;;;;;;;15.94;100.00;101069.75;5043654;28;20028;-84
2022/06/26 01:26:07;;;;;;;21.15;18.35;;;;;;;15.95;100.00;101073.28;5046725;28;20040;-84
2022/06/26 01:28:32;;;;;;;25.60;17.98;;;;;;;15.91;100.00;101069.09;5042153;28;20420;-84
2022/06/26 01:30:58;;;;;;;22.90;18.15;;;;;;;15.92;100.00;101076.16;5043251;28;20406;-85
2022/06/26 01:33:23;;;;;;;20.75;17.20;;;;;;;15.93;100.00;101075.22;5044033;28;20396;-86
2022/06/26 01:35:49;;;;;;;21.95;16.45;;;;;;;15.88;100.00;101063.94;5045559;28;20035;-84
2022/06/26 01:38:22;;;;;;;16.98;14.27;;;;;;;15.87;100.00;101073.81;5043278;28;20041;-84
2022/06/26 01:40:50;;;;;;;14.70;12.50;;;;;;;15.77;100.00;101074.56;5056398;28;20037;-84
2022/06/26 01:43:18;;;;;;;13.07;11.68;;;;;;;15.72;100.00;101074.88;5044719;28;20040;-84
2022/06/26 01:45:46;;;;;;;13.65;9.77;;;;;;;15.63;100.00;101070.09;5045179;28;20492;-84
2022/06/26 01:48:12;;;;;;;9.55;8.52;;;;;;;15.57;100.00;101070.53;5045007;28;20380;-84
2022/06/26 01:50:37;;;;;;;13.18;8.57;;;;;;;15.51;100.00;101076.28;5045866;28;20025;-84
2022/06/26 01:53:03;;;;;;;10.98;8.48;;;;;;;15.50;100.00;101071.91;5042652;28;20057;-83
2022/06/26 01:55:29;;;;;;;9.38;8.38;;;;;;;15.43;100.00;101069.66;5042564;28;20973;-83
2022/06/26 01:57:54;;;;;;;10.45;8.07;;;;;;;15.41;100.00;101065.34;5041757;28;20044;-84
2022/06/26 02:00:20;;;;;;;14.18;8.93;;;;;;;15.41;100.00;101063.50;5042398;28;20029;-84
2022/06/26 02:02:45;;;;;;;12.07;9.23;;;;;;;15.42;100.00;101075.97;5043774;28;20021;-84
2022/06/26 02:05:11;;;;;;;12.48;9.80;;;;;;;15.37;100.00;101055.78;5041961;28;20025;-85
2022/06/26 02:07:36;;;;;;;11.32;9.77;;;;;;;15.35;100.00;101055.88;5045833;28;20100;-85
2022/06/26 02:15:30;;;;;;;;;;;;;;;15.42;100.00;101054.53;5057590;28;20243;-83
2022/06/26 02:17:55;;;;;;;14.73;12.25;;;;;;;15.48;100.00;101045.19;5063114;28;19916;-84
2022/06/26 02:20:21;;;;;;;13.73;12.10;;;;;;;15.48;100.00;101047.88;5063096;28;20097;-84
2022/06/26 02:22:46;;;;;;;14.65;12.90;;;;;;;15.50;100.00;101050.44;5059306;28;20442;-84
2022/06/26 02:25:11;;;;;;;16.35;12.90;;;;;;;15.47;100.00;101035.44;5054345;28;20025;-84
2022/06/26 02:27:37;;;;;;;16.42;13.35;;;;;;;15.49;100.00;101046.03;5049964;28;20048;-84
2022/06/26 02:30:03;;;;;;;15.07;13.48;;;;;;;15.52;100.00;101046.69;5046860;28;20386;-83
2022/06/26 02:32:28;;;;;;;16.40;13.68;;;;;;;15.54;100.00;101060.84;5047941;28;20063;-84
2022/06/26 02:34:53;;;;;;;16.95;12.85;;;;;;;15.50;100.00;101067.38;5041889;28;20033;-84
2022/06/26 02:37:18;;;;;;;17.25;14.38;;;;;;;15.49;100.00;101073.72;5047299;28;20068;-85
2022/06/26 02:39:44;;;;;;;17.10;14.00;;;;;;;15.47;100.00;101088.19;5043842;28;20053;-84
2022/06/26 02:42:09;;;;;;;18.38;13.93;;;;;;;15.44;100.00;101090.13;5046051;28;20045;-84
2022/06/26 02:44:34;;;;;;;17.85;15.10;;;;;;;15.40;100.00;101095.81;5043705;28;20100;-84
2022/06/26 02:47:00;;;;;;;22.23;15.52;;;;;;;15.37;100.00;101086.13;5041552;28;21283;-83
2022/06/26 02:49:26;;;;;;;20.25;15.98;;;;;;;15.28;100.00;101085.91;5044192;28;20021;-84
2022/06/26 02:51:51;;;;;;;17.85;15.20;;;;;;;15.18;100.00;101091.88;5043431;28;20470;-84
2022/06/26 02:54:17;;;;;;;19.00;15.02;;;;;;;15.09;100.00;101095.19;5041695;28;20022;-83
2022/06/26 02:56:42;;;;;;;17.42;14.07;;;;;;;15.04;100.00;101099.09;5042359;28;20024;-84
2022/06/26 02:59:07;;;;;;;19.75;14.23;;;;;;;14.99;100.00;101099.41;5040669;28;20045;-83
2022/06/26 03:01:33;;;;;;;17.02;13.00;;;;;;;14.94;100.00;101105.06;5043855;28;20082;-84
2022/06/26 03:03:58;;;;;;;15.50;13.07;;;;;;;14.84;100.00;101095.91;5040845;28;20126;-83
2022/06/26 03:06:23;;;;;;;15.80;12.73;;;;;;;14.83;100.00;101102.22;5042957;28;20025;-83
2022/06/26 03:08:49;;;;;;;16.45;12.80;;;;;;;14.79;100.00;101103.38;5043298;28;20112;-83
2022/06/26 03:11:14;;;;;;;16.60;12.35;;;;;;;14.79;100.00;101103.38;5044600;28;20129;-84
2022/06/26 03:13:39;;;;;;;17.42;12.35;;;;;;;14.74;100.00;101101.94;5042323;28;20028;-83
2022/06/26 03:16:05;;;;;;;15.90;11.73;;;;;;;14.69;100.00;101112.97;5041390;28;20021;-83
2022/06/26 03:18:30;;;;;;;17.23;12.23;;;;;;;14.70;100.00;101117.34;5042156;28;20052;-83
2022/06/26 03:20:56;;;;;;;14.75;12.70;;;;;;;14.66;100.00;101122.03;5039898;28;20151;-81
2022/06/26 03:24:00;;;;;;;15.32;11.85;;;;;;;14.64;100.00;101129.34;5044260;28;20029;-83
2022/06/26 03:26:07;;;;;;;15.25;12.02;;;;;;;14.57;100.00;101119.94;5037663;28;20098;-83
2022/06/26 03:28:32;;;;;;;15.82;11.57;;;;;;;14.63;100.00;101124.06;5042411;28;20028;-83
2022/06/26 03:30:57;;;;;;;16.92;11.23;;;;;;;14.64;100.00;101131.16;5042884;28;20234;-83
2022/06/26 03:33:23;;;;;;;11.52;10.23;;;;;;;14.62;100.00;101122.34;5044021;28;20466;-83
2022/06/26 03:35:48;;;;;;;14.43;10.95;;;;;;;14.63;100.00;101124.06;5055704;28;20076;-83
2022/06/26 03:38:15;;;;;;;14.48;10.35;;;;;;;14.61;100.00;101134.88;5039559;28;20033;-84
2022/06/26 03:40:40;;;;;;;13.95;10.43;;;;;;;14.59;100.00;101146.63;5042894;28;20040;-84
2022/06/26 03:43:09;;;;;;;15.38;11.13;;;;;;;14.60;100.00;101149.25;5045282;28;20045;-84
2022/06/26 03:45:34;;;;;;;15.07;10.02;;;;;;;14.57;100.00;101149.41;5043558;28;20431;-84
2022/06/26 03:48:00;;;;;;;14.52;10.13;;;;;;;14.60;100.00;101156.41;5038740;28;20060;-84
2022/06/26 03:50:25;;;;;;;14.52;10.30;;;;;;;14.54;100.00;101160.31;5044234;28;20025;-84
2022/06/26 03:52:50;;;;;;;15.10;10.15;;;;;;;14.55;100.00;101162.06;5040525;28;20486;-83
2022/06/26 03:55:16;;;;;;;15.65;10.70;;;;;;;14.55;100.00;101163.88;5043684;28;20517;-84
2022/06/26 03:57:41;;;;;;;14.25;9.90;;;;;;;14.53;100.00;101161.28;5040311;28;20021;-84
2022/06/26 04:00:07;;;;;;;17.48;10.45;;;;;;;14.53;100.00;101163.09;5041038;28;20036;-84
2022/06/26 04:02:32;;;;;;;14.35;9.88;;;;;;;14.50;100.00;101153.44;5042937;28;20059;-85
2022/06/26 04:04:58;;;;;;;16.30;10.95;;;;;;;14.49;100.00;101154.41;5042664;28;20119;-83
2022/06/26 04:07:23;;;;;;;13.85;10.07;;;;;;;14.47;100.00;101152.75;5043086;28;20492;-82
2022/06/26 04:09:48;;;;;;;16.40;10.60;;;;;;;14.45;100.00;101140.28;5041243;28;20545;-83
2022/06/26 04:12:13;;;;;;;16.65;10.40;;;;;;;14.55;100.00;101147.81;5041930;28;20116;-84
2022/06/26 04:14:39;;;;;;;14.90;10.35;;;;;;;14.59;100.00;101141.28;5040660;28;20029;-84
2022/06/26 04:17:04;;;;;;;17.10;10.05;;;;;;;14.65;100.00;101162.34;5039971;28;20382;-84
2022/06/26 04:19:29;;;;;;;14.50;9.38;;;;;;;14.68;100.00;101164.84;5039230;28;20068;-84
2022/06/26 04:21:55;;;;;;;12.90;9.57;;;;;;;14.76;100.00;101172.41;5039159;28;20029;-84
2022/06/26 04:24:20;;;;;;;13.50;10.05;;;;;;;14.80;100.00;101166.75;5041971;28;20108;-83
2022/06/26 04:26:45;;;;;;;15.98;10.00;;;;;;;14.83;100.00;101168.34;5039862;28;20635;-83
2022/06/26 04:29:11;;;;;;;15.20;9.38;;;;;;;14.82;100.00;101177.34;5042257;28;20028;-84
2022/06/26 04:31:36;;;;;;;12.13;8.80;;;;;;;14.83;100.00;101192.47;5044827;28;20029;-84
2022/06/26 04:34:02;;;;;;;16.10;9.60;;;;;;;14.82;100.00;101202.31;5039800;28;20029;-84
2022/06/26 04:36:27;;;;;;;13.80;9.45;;;;;;;14.85;100.00;101198.59;5037629;28;20025;-83
2022/06/26 04:38:53;;;;;;;14.73;9.25;;;;;;;14.86;99.90;101203.00;5040248;28;20132;-84
2022/06/26 04:41:36;;;;;;;16.40;10.52;;;;;;;14.85;100.00;101204.81;5040754;28;20073;-83
2022/06/26 04:44:11;;;;;;;15.98;9.88;;;;;;;14.93;99.73;101209.69;5040004;28;20775;-83
2022/06/26 04:46:39;;;;;;;15.55;10.57;;;;;;;14.90;99.25;101208.06;5042906;28;20028;-84
2022/06/26 04:49:06;;;;;;;16.80;9.88;;;;;;;14.93;99.44;101215.06;5042217;28;20036;-84
2022/06/26 04:51:31;;;;;;;13.70;9.43;;;;;;;14.94;99.09;101212.28;5042323;28;20028;-84
2022/06/26 04:53:57;;;;;;;16.92;9.25;;;;;;;14.96;98.62;101209.47;5041257;28;20040;-84
2022/06/26 04:56:22;;;;;;;15.38;9.88;;;;;;;15.02;98.26;101213.63;5040113;28;20418;-84
2022/06/26 04:58:47;;;;;;;13.35;8.88;;;;;;;15.03;97.69;101218.88;5039650;28;20127;-83
2022/06/26 05:01:14;;;;;;;13.32;8.80;;;;;;;15.08;97.55;101231.97;5042648;28;20033;-84
2022/06/26 05:03:39;;;;;;;16.05;9.38;;;;;;;15.07;97.15;101216.84;5044038;28;20025;-84
2022/06/26 05:06:05;;;;;;;14.98;8.80;;;;;;;15.02;96.70;101208.25;5042026;28;20367;-83
2022/06/26 05:08:30;;;;;;;12.88;8.80;;;;;;;15.01;96.87;101217.25;5042503;28;20076;-84
2022/06/26 05:10:55;;;;;;;16.50;8.88;;;;;;;15.01;97.59;101220.81;5042827;28;20240;-83
2022/06/26 05:13:21;;;;;;;15.23;9.02;;;;;;;15.02;96.58;101214.47;5043511;28;20029;-83
2022/06/26 05:15:49;;;;;;;15.10;9.20;;;;;;;15.01;96.61;101219.94;5038528;28;20028;-83
2022/06/26 05:18:14;;;;;;;15.05;8.77;;;;;;;14.99;97.42;101221.84;5042344;28;20033;-83
2022/06/26 05:20:40;;;;;;;15.30;9.40;;;;;;;14.94;96.70;101219.47;5041154;28;20378;-83
2022/06/26 05:23:07;;;;;;;13.75;9.20;;;;;;;14.98;97.45;101228.16;5043324;28;20428;-83
2022/06/26 05:25:33;;;;;;;15.15;8.65;;;;;;;14.93;96.41;101226.63;5042203;28;20035;-83
2022/06/26 05:27:58;;;;;;;16.70;9.23;;;;;;;14.92;95.67;101207.97;5038647;28;20029;-84
2022/06/26 05:30:24;;;;;;;15.52;8.68;;;;;;;14.94;96.73;101214.09;5041524;28;20107;-83
2022/06/26 05:32:49;;;;;;;18.20;9.50;;;;;;;15.01;97.42;101214.59;5040851;28;20326;-83
2022/06/26 05:35:15;;;;;;;15.00;8.82;;;;;;;15.09;96.79;101210.44;5040694;28;20462;-83
2022/06/26 05:37:40;;;;;;;14.07;8.85;;;;;;;15.20;96.02;101223.16;5041971;28;20029;-84
2022/06/26 05:40:06;;;;;;;11.65;7.97;;;;;;;15.26;95.68;101227.25;5045674;28;20040;-82
2022/06/26 05:42:31;;;;;;;16.20;8.93;;;;;;;15.31;95.66;101233.22;5054371;28;20417;-83
2022/06/26 05:44:57;;;;;;;15.18;8.35;;;;;;;15.34;94.37;101232.97;5059101;28;20033;-83
2022/06/26 05:47:22;;;;;;;11.90;8.35;;;;;;;15.39;94.15;101231.75;5059446;28;20064;-83
2022/06/26 05:49:47;;;;;;;14.90;9.45;;;;;;;15.47;94.65;101251.81;5059899;28;20040;-83
2022/06/26 05:52:13;;;;;;;13.48;7.85;;;;;;;15.55;92.83;101257.56;5056068;28;20103;-83
2022/06/26 05:54:38;;;;;;;13.25;8.73;;;;;;;15.65;92.83;101266.78;5054789;28;20025;-84
2022/06/26 05:57:04;;;;;;;14.65;8.70;;;;;;;15.75;92.44;101267.88;5049948;28;20032;-84
2022/06/26 05:59:29;;;;;;;17.30;8.68;;;;;;;15.99;91.85;101269.91;5050906;28;20090;-83
2022/06/26 06:01:54;;;;;;;12.80;7.90;;;;;;;16.25;91.22;101260.94;5047389;28;20025;-83
2022/06/26 06:04:19;;;;;;;13.48;8.27;;;;;;;16.48;89.56;101256.69;5048483;28;20375;-84
2022/06/26 06:06:45;;;;;;;12.48;7.78;;;;;;;16.73;88.04;101261.28;5045469;28;20037;-84
2022/06/26 06:09:10;;;;;;;13.77;7.20;;;;;;;17.01;87.26;101278.13;5047638;28;20021;-83
2022/06/26 06:11:36;;;;;;;12.82;8.10;;;;;;;17.17;86.27;101271.53;5049062;28;20060;-83
2022/06/26 06:14:01;;;;;;;13.55;7.65;;;;;;;17.39;84.06;101270.00;5047200;28;20484;-83
2022/06/26 06:16:27;;;;;;;11.27;7.53;;;;;;;17.65;83.72;101268.09;5045927;28;20044;-84
2022/06/26 06:18:52;;;;;;;11.68;6.85;;;;;;;17.77;81.83;101269.91;5045443;28;20025;-84
2022/06/26 06:21:17;;;;;;;9.90;6.65;;;;;;;17.79;81.08;101265.25;5047727;28;20028;-83
2022/06/26 06:23:43;;;;;;;10.98;6.68;;;;;;;17.71;81.12;101269.47;5042621;28;20017;-84
2022/06/26 06:26:09;;;;;;;11.27;6.80;;;;;;;17.68;80.16;101270.53;5044259;28;20033;-83
2022/06/26 06:28:35;;;;;;;9.48;6.18;;;;;;;17.63;79.55;101261.94;5047846;28;20059;-84
2022/06/26 06:31:00;;;;;;;9.32;6.00;;;;;;;17.74;79.40;101274.63;5045658;28;20060;-84
2022/06/26 06:33:26;;;;;;;8.85;5.97;;;;;;;17.84;79.55;101271.16;5044693;28;20040;-83
2022/06/26 06:35:54;;;;;;;10.43;7.07;;;;;;;18.04;79.62;101282.28;5058319;28;20037;-85
2022/06/26 06:38:20;;;;;;;9.70;6.93;;;;;;;18.19;77.89;101275.75;5045740;28;20751;-84
2022/06/26 06:40:46;;;;;;;10.23;5.60;;;;;;;18.18;77.21;101295.56;5045962;28;20039;-83
2022/06/26 06:43:11;;;;;;;8.40;5.32;;;;;;;18.23;76.41;101288.00;5046973;28;20115;-84
2022/06/26 06:45:36;;;;;;;8.52;5.18;;;;;;;18.30;76.70;101294.63;5039713;28;20430;-84
2022/06/26 06:48:02;;;;;;;8.52;5.68;;;;;;;18.33;76.94;101307.03;5043839;28;20426;-85
2022/06/26 06:50:27;;;;;;;7.20;5.25;;;;;;;18.31;76.40;101317.94;5044281;28;20040;-84
2022/06/26 06:52:52;;;;;;;6.95;5.00;;;;;;;18.38;76.82;101321.84;5045049;28;20037;-84
2022/06/26 06:55:18;;;;;;;7.50;5.28;;;;;;;18.44;75.36;101322.38;5042842;28;20390;-84
2022/06/26 06:57:43;;;;;;;6.60;4.55;;;;;;;18.59;75.51;101321.19;5043057;28;20037;-84
2022/06/26 07:00:09;;;;;;;7.68;4.90;;;;;;;18.67;74.67;101343.03;5045082;28;20033;-84
2022/06/26 07:02:37;;;;;;;8.65;4.80;;;;;;;18.78;74.62;101356.59;5044902;28;20082;-84
2022/06/26 07:05:03;;;;;;;5.97;3.80;;;;;;;18.81;73.46;101350.06;5041196;28;20159;-85
2022/06/26 07:07:29;;;;;;;7.35;4.53;;;;;;;18.92;73.71;101356.38;5044456;28;20029;-84
2022/06/26 07:09:54;;;;;;;8.20;4.30;;;;;;;19.00;72.11;101358.47;5045045;28;20098;-85
2022/06/26 07:12:19;;;;;;;7.47;4.40;;;;;;;19.05;72.18;101360.81;5045223;28;20029;-84
2022/06/26 07:14:45;;;;;;;8.20;4.38;;;;;;;19.15;71.39;101356.41;5043336;28;20036;-84
2022/06/26 07:17:10;;;;;;;6.60;3.97;;;;;;;19.36;71.02;101351.16;5044263;28;20025;-83
2022/06/26 07:19:35;;;;;;;4.15;3.75;;;;;;;19.42;70.16;101351.50;5041932;28;20040;-86
2022/06/26 07:22:01;;;;;;;5.88;3.80;;;;;;;19.53;70.80;101345.25;5046938;28;20040;-84
2022/06/26 07:24:26;;;;;;;4.95;3.92;;;;;;;19.55;69.78;101332.47;5044998;28;20037;-83
2022/06/26 07:26:52;;;;;;;5.60;4.07;;;;;;;19.58;70.59;101337.63;5041036;28;20025;-84
2022/06/26 07:29:17;;;;;;;6.22;4.05;;;;;;;19.61;69.99;101347.38;5045893;28;20439;-84
2022/06/26 07:31:43;;;;;;;5.45;4.72;;;;;;;19.55;69.69;101359.47;5040384;28;20079;-83
2022/06/26 07:34:16;;;;;;;7.13;4.57;;;;;;;19.47;69.63;101364.63;5038543;28;20098;-84
2022/06/26 07:36:43;;;;;;;6.20;4.25;;;;;;;19.36;69.56;101370.06;5040526;28;20174;-84
2022/06/26 07:39:12;;;;;;;9.13;4.95;;;;;;;19.33;68.94;101371.16;5042442;28;20059;-83
2022/06/26 07:41:38;;;;;;;6.93;4.15;;;;;;;19.31;69.51;101369.53;5038819;28;20025;-83
2022/06/26 07:44:03;;;;;;;7.38;5.03;;;;;;;19.39;68.84;101359.00;5040845;28;20095;-83
2022/06/26 07:46:29;;;;;;;6.60;4.35;;;;;;;19.43;68.19;101357.75;5039754;28;20044;-83
2022/06/26 07:48:55;;;;;;;6.32;5.00;;;;;;;19.45;68.82;101353.13;5064023;28;20078;-84
2022/06/26 07:51:20;;;;;;;6.22;4.70;;;;;;;19.51;68.14;101376.91;5064200;28;20074;-84
2022/06/26 07:53:46;;;;;;;5.85;4.95;;;;;;;19.63;69.82;101356.19;5050358;28;20039;-83
2022/06/26 07:56:12;;;;;;;7.55;4.68;;;;;;;19.83;68.99;101363.53;5047550;28;20076;-83
2022/06/26 07:58:38;;;;;;;6.85;4.30;;;;;;;19.92;67.86;101369.19;5043671;28;20039;-84
2022/06/26 08:01:03;;;;;;;5.55;4.13;;;;;;;19.81;67.77;101362.78;5041441;28;20088;-84
2022/06/26 08:03:28;;;;;;;6.53;3.90;;;;;;;19.66;67.96;101377.56;5044738;28;20333;-83
2022/06/26 08:05:53;;;;;;;4.93;3.72;;;;;;;19.42;67.35;101386.59;5047175;28;20029;-83
2022/06/26 08:08:19;;;;;;;6.57;4.00;;;;;;;19.27;68.84;101384.25;5043573;28;20036;-83
2022/06/26 08:10:44;;;;;;;7.32;4.97;;;;;;;19.22;68.68;101384.63;5043828;28;20028;-84
2022/06/26 08:13:09;;;;;;;5.65;4.72;;;;;;;19.10;70.04;101396.38;5041938;28;20494;-83
2022/06/26 08:15:36;;;;;;;5.63;4.57;;;;;;;18.98;69.56;101391.91;5044715;28;20410;-84
2022/06/26 08:18:02;;;;;;;4.75;4.20;;;;;;;18.89;70.16;101393.50;5045255;28;20094;-83
2022/06/26 08:20:28;;;;;;;5.43;4.20;;;;;;;18.93;70.70;101394.97;5042214;28;20033;-84
2022/06/26 08:22:53;;;;;;;8.48;4.40;;;;;;;18.91;71.18;101387.03;5042204;28;20037;-83
2022/06/26 08:25:18;;;;;;;6.38;4.18;;;;;;;18.96;70.51;101392.06;5041601;28;20017;-83
2022/06/26 08:27:44;;;;;;;8.55;4.25;;;;;;;19.05;69.48;101396.72;5042846;28;20033;-83
2022/06/26 08:30:09;;;;;;;5.18;3.90;;;;;;;19.17;70.33;101401.16;5040171;28;20025;-84
2022/06/26 08:32:36;;;;;;;5.32;3.55;;;;;;;19.24;69.06;101382.66;5041462;28;20029;-84
2022/06/26 08:35:03;;;;;;;4.88;3.50;;;;;;;19.29;69.59;101385.00;5039574;28;20137;-83
2022/06/26 08:37:28;;;;;;;6.43;4.20;;;;;;;19.35;69.44;101389.91;5043264;28;20028;-84
2022/06/26 08:39:53;;;;;;;6.68;3.83;;;;;;;19.38;69.11;101382.44;5043865;28;20036;-84
2022/06/26 08:42:21;;;;;;;7.68;4.13;;;;;;;19.50;69.01;101398.63;5041386;28;20128;-85
2022/06/26 08:44:48;;;;;;;4.53;3.83;;;;;;;19.49;67.33;101408.59;5041514;28;20036;-83
2022/06/26 08:47:16;;;;;;;4.40;4.00;;;;;;;19.44;68.75;101415.31;5039488;28;20025;-85
2022/06/26 08:49:41;;;;;;;5.10;3.60;;;;;;;19.47;68.44;101413.22;5042002;28;20857;-84
2022/06/26 08:52:12;;;;;;;7.55;3.70;;;;;;;19.52;68.90;101412.84;5042688;28;20039;-84
2022/06/26 08:54:38;;;;;;;4.07;3.58;;;;;;;19.55;68.71;101412.63;5046143;28;20028;-84
2022/06/26 08:57:04;;;;;;;5.82;3.40;;;;;;;19.47;67.42;101398.88;5045712;28;20021;-85
2022/06/26 08:59:30;;;;;;;5.88;3.85;;;;;;;19.49;67.37;101402.31;5043281;28;20045;-85
2022/06/26 09:01:55;;;;;;;6.53;3.40;;;;;;;19.51;66.00;101397.66;5043093;28;20171;-85
2022/06/26 09:04:21;;;;;;;6.63;4.50;;;;;;;19.52;66.92;101400.25;5043771;28;20036;-84
2022/06/26 09:06:46;;;;;;;5.50;4.13;;;;;;;19.64;68.32;101410.06;5045253;28;20032;-85
2022/06/26 09:09:19;;;;;;;6.35;4.18;;;;;;;19.78;66.40;101391.91;5055554;28;20047;-84
2022/06/26 09:11:45;;;;;;;4.60;4.10;;;;;;;19.83;65.95;101393.25;5058340;28;20036;-84
2022/06/26 09:14:12;;;;;;;7.45;3.95;;;;;;;19.75;66.06;101398.41;5059726;28;20033;-83
2022/06/26 09:16:44;;;;;;;4.70;3.70;;;;;;;19.64;67.23;101403.81;5057211;28;20017;-84
2022/06/26 09:19:16;;;;;;;6.32;4.43;;;;;;;19.61;66.85;101390.59;5046465;28;20040;-83
2022/06/26 09:21:42;;;;;;;8.50;3.90;;;;;;;19.63;66.72;101405.66;5052386;28;20029;-84
2022/06/26 09:24:10;;;;;;;6.28;3.75;;;;;;;19.56;66.61;101398.13;5051549;28;20025;-83
2022/06/26 09:26:35;;;;;;;7.03;3.80;;;;;;;19.64;66.98;101393.00;5047939;28;20036;-83
2022/06/26 09:29:15;;;;;;;6.45;3.92;;;;;;;19.74;67.16;101402.09;5044712;28;20033;-82
2022/06/26 09:31:41;;;;;;;5.00;3.80;;;;;;;19.77;65.40;101412.69;5045123;28;20071;-83
2022/06/26 09:34:24;;;;;;;6.03;3.97;;;;;;;19.82;65.73;101412.31;5042842;28;20021;-83
2022/06/26 09:37:01;;;;;;;8.27;3.92;;;;;;;19.89;65.15;101411.66;5044611;28;20167;-81
2022/06/26 09:39:27;;;;;;;5.75;4.22;;;;;;;19.92;63.86;101425.91;5045509;28;21318;-83
2022/06/26 09:41:53;;;;;;;6.47;3.65;;;;;;;19.93;65.54;101430.31;5044820;28;20304;-83
2022/06/26 09:44:19;;;;;;;6.95;4.32;;;;;;;19.96;65.36;101427.38;5043058;28;20032;-86
2022/06/26 09:46:45;;;;;;;5.93;4.45;;;;;;;19.89;66.06;101433.25;5043978;28;20115;-85
2022/06/26 09:49:11;;;;;;;6.20;4.03;;;;;;;19.88;65.95;101426.16;5047457;28;20128;-85
2022/06/26 09:51:36;;;;;;;7.85;4.35;;;;;;;19.92;65.64;101428.63;5045964;28;20020;-85
2022/06/26 09:54:03;;;;;;;6.30;4.30;;;;;;;20.00;65.76;101421.59;5043886;28;20151;-85
2022/06/26 09:56:29;;;;;;;6.80;4.50;;;;;;;19.98;65.91;101439.78;5046383;28;20103;-85
2022/06/26 09:58:58;;;;;;;7.18;4.47;;;;;;;20.03;66.28;101434.88;5044444;28;20041;-86
2022/06/26 10:06:55;;;;;;;7.97;4.18;;;;;;;20.28;64.46;101449.09;5046643;28;20681;-85
2022/06/26 10:09:20;;;;;;;6.65;4.18;;;;;;;20.35;65.37;101439.47;5047098;28;20037;-84
2022/06/26 10:11:46;;;;;;;5.97;4.43;;;;;;;20.55;65.30;101445.97;5047522;28;20021;-85
2022/06/26 10:14:17;;;;;;;7.53;3.78;;;;;;;20.68;63.81;101443.09;5043298;28;20056;-84
2022/06/26 10:17:01;;;;;;;6.00;3.78;;;;;;;20.74;63.10;101446.16;5046766;28;20033;-84
2022/06/26 10:19:46;;;;;;;5.88;4.20;;;;;;;20.91;64.27;101458.25;5045692;28;20041;-85
2022/06/26 10:22:15;;;;;;;4.63;3.60;;;;;;;20.81;63.94;101468.97;5048024;28;20029;-85
2022/06/26 10:24:58;;;;;;;6.55;3.75;;;;;;;20.73;65.07;101449.81;5045027;28;20722;-85
2022/06/26 10:27:34;;;;;;;9.13;3.20;;;;;;;20.83;64.34;101441.81;5045896;28;20037;-85
2022/06/26 10:30:03;;;;;;;5.18;2.70;;;;;;;20.66;61.72;101442.38;5041950;28;20041;-85
2022/06/26 10:32:28;;;;;;;3.72;2.53;;;;;;;20.60;61.97;101465.34;5046384;28;20037;-85
2022/06/26 10:34:55;;;;;;;6.47;2.70;;;;;;;20.59;62.19;101453.69;5043726;28;20031;-84
2022/06/26 10:37:21;;;;;;;7.32;3.03;;;;;;;20.77;64.18;101462.09;5047328;28;20029;-84
2022/06/26 10:39:52;;;;;;;6.43;3.13;;;;;;;20.85;62.90;101454.19;5045289;28;20041;-85
2022/06/26 10:45:11;;;;;;;5.93;3.08;;;;;;;21.59;62.38;101464.13;5045342;28;20064;-84
2022/06/26 10:47:42;;;;;;;3.65;2.58;;;;;;;22.06;59.77;101456.34;5048221;28;20029;-82
2022/06/26 10:50:22;;;;;;;9.18;2.83;;;;;;;22.72;58.38;101458.53;5045383;28;20040;-84
2022/06/26 10:52:48;;;;;;;5.97;2.30;;;;;;;23.13;54.30;101468.25;5043280;28;20022;-82
2022/06/26 10:55:13;;;;;;;5.20;2.80;;;;;;;23.10;53.60;101454.97;5041916;28;20513;-84
2022/06/26 10:57:38;;;;;;;4.72;2.90;;;;;;;22.92;55.63;101451.28;5046379;28;20471;-84
2022/06/26 11:00:12;;;;;;;6.38;2.80;;;;;;;22.68;55.20;101457.94;5042434;28;20033;-82
2022/06/26 11:02:40;;;;;;;5.40;2.63;;;;;;;22.28;55.07;101448.03;5042716;28;20036;-82
2022/06/26 11:05:09;;;;;;;4.03;2.28;;;;;;;22.17;55.81;101460.84;5040356;28;20086;-83
2022/06/26 11:08:00;;;;;;;4.97;2.65;;;;;;;22.38;57.76;101450.78;5046696;28;20029;-82
2022/06/26 11:10:28;;;;;;;6.32;2.80;;;;;;;22.17;55.89;101447.28;5048325;28;20033;-82
2022/06/26 11:12:54;;;;;;;5.88;3.00;;;;;;;22.16;57.26;101446.44;5056870;28;20031;-83
2022/06/26 11:15:20;;;;;;;5.20;2.60;;;;;;;22.30;56.97;101442.47;5061220;28;20035;-83
2022/06/26 11:17:54;;;;;;;5.80;2.63;;;;;;;22.47;56.99;101436.34;5058518;28;20032;-83
2022/06/26 11:23:12;;;;;;;6.40;3.42;;;;;;;22.31;56.25;101431.47;5051355;28;20047;-84
2022/06/26 11:25:40;;;;;;;5.95;2.60;;;;;;;22.40;56.07;101434.34;5050414;28;20191;-83
2022/06/26 11:28:08;;;;;;;4.63;2.70;;;;;;;22.63;55.05;101420.38;5049445;28;20592;-84